Airfield :
LOGIN :

Register | Disclaimer

   EN    FR    IT 

 










Legend :    VFR   Marginal VFR   IFR   Intensive IFR   Very Intensive IFR
Visi :
Ceiling :
>= 8 km
>= 3000ft
5 to 8 km
1000 to 3000 ft
1500m to 5 km
500 to 1000 ft
800 to 1500m
200 to 500 ft
< 800m
< 200 ft
Symbols :   Thunderstorms  Fog  Heavy snow  Heavy precipitations  Wind > 20 kt
SIGMETs :     Misc.  Thunderstorms  Icing  Turbulence  Mountain Waves  Volcanic Ashes






- Airport Elevation : 24 ft
- IATA code : FAO


LPFR - Faro

CURRENT METAR :
  • 091430Z 24007KT 9999 SCT020 18/14 Q1029

EXPIRED METARs :
  • 091400Z 25006KT 9999 BKN020 17/14 Q1029
  • 091330Z 25005KT 9999 BKN020 17/14 Q1029
  • 091300Z 25005KT 9999 BKN019 17/15 Q1029
  • 091230Z 27005KT 9999 BKN019 17/14 Q1030
  • 091200Z VRB02KT 9999 FEW010 BKN019 17/15 Q1030

TAF TAF LPFR
Valid from the 09 at 12:00 until the 10 at 12:00 UTC


091100Z 0912/1012 VRB03KT 9999 FEW010 BKN020
BECMG 0913/0916 23008KT SCT025
BECMG 0916/0918 29007KT CAVOK
BECMG 0922/0924 01007KT
BECMG 1006/1009 VRB03KT
BECMG 1009/1011 19010KT



MET'MAP, your aeronautical weather chart ! - Copyright ORBIFLY December 2007 - Disclaimer

ORBIFLY MET'MAP TEAM :

Programming & Development : Alexandra Zaïnal
Concept & original design : Baudouin d'Aumeries
Assistance for programming : Marc-Olivier Méhu
Technical & hardware support : Manuel Goepfert

Contact : metmap@orbifly.com




SOURCES & CREDITS :

   NOAA